Time;durP1;ratioP1;P1;durP2;ratioP2;P2;SDS_P1;SDS_P2;PMS_P1;PMS_P2;Temp;Humidity;BMP_temperature;BMP_pressure;BME280_temperature;BME280_humidity;BME280_pressure;Samples;Min_cycle;Max_cycle;Signal;HPM_P1;HPM_P2
2022/11/28 00:01:06;;;;;;;10.00;3.88;;;3.90;99.90;;;;;;5098046;28;19908;-76
2022/11/28 00:03:32;;;;;;;8.30;4.13;;;3.90;99.90;;;;;;5080363;28;20032;-76
2022/11/28 00:06:06;;;;;;;6.10;4.35;;;3.80;99.90;;;;;;5080334;28;20303;-76
2022/11/28 00:08:32;;;;;;;7.65;4.80;;;3.70;99.90;;;;;;5080712;28;20012;-75
2022/11/28 00:10:58;;;;;;;7.80;4.47;;;4.00;99.90;;;;;;5079850;28;20224;-76
2022/11/28 00:13:23;;;;;;;7.47;4.20;;;4.50;99.90;;;;;;5080337;28;20324;-76
2022/11/28 00:16:00;;;;;;;7.93;4.40;;;3.80;99.90;;;;;;5079431;28;20036;-75
2022/11/28 00:18:26;;;;;;;5.97;4.07;;;3.50;99.90;;;;;;5080504;28;20149;-75
2022/11/28 00:20:59;;;;;;;9.65;3.97;;;3.50;99.90;;;;;;5098334;28;20024;-76
2022/11/28 00:23:24;;;;;;;8.82;4.32;;;4.50;99.90;;;;;;5080667;28;20032;-75
2022/11/28 00:26:02;;;;;;;8.00;4.30;;;3.40;99.90;;;;;;5080782;28;20122;-76
2022/11/28 00:28:28;;;;;;;7.25;4.40;;;3.50;99.90;;;;;;5081438;28;20031;-76
2022/11/28 00:30:53;;;;;;;9.45;5.20;;;3.30;99.90;;;;;;5101659;28;20027;-75
2022/11/28 00:33:19;;;;;;;6.63;3.63;;;4.00;99.90;;;;;;5102624;28;20362;-75
2022/11/28 00:35:45;;;;;;;7.80;5.43;;;3.50;99.90;;;;;;5084113;28;20028;-75
2022/11/28 00:38:10;;;;;;;12.98;4.80;;;4.60;99.90;;;;;;5083662;28;20058;-75
2022/11/28 00:40:36;;;;;;;8.25;4.75;;;4.60;99.90;;;;;;5102752;28;20028;-76
2022/11/28 00:43:01;;;;;;;10.43;4.97;;;4.50;99.90;;;;;;5084395;28;20095;-75
2022/11/28 00:45:27;;;;;;;7.68;4.30;;;;;;;;;;5075567;28;20108;-76
2022/11/28 00:47:53;;;;;;;9.05;4.88;;;3.20;99.90;;;;;;5081934;28;20016;-75
2022/11/28 00:50:19;;;;;;;9.20;5.78;;;4.30;99.90;;;;;;5063833;28;20024;-76
2022/11/28 00:52:44;;;;;;;13.43;5.70;;;3.30;99.90;;;;;;5063705;28;20056;-76
2022/11/28 00:55:10;;;;;;;12.45;5.57;;;4.00;99.90;;;;;;5081502;28;20036;-76
2022/11/28 00:57:36;;;;;;;8.90;4.03;;;4.20;99.90;;;;;;5081545;28;20395;-77
2022/11/28 01:00:04;;;;;;;10.80;4.75;;;3.60;99.90;;;;;;5063528;28;20050;-76
2022/11/28 01:02:30;;;;;;;13.35;6.72;;;3.70;99.90;;;;;;5063952;28;20247;-75
2022/11/28 01:04:55;;;;;;;11.82;6.70;;;3.60;99.90;;;;;;5080276;28;20080;-76
2022/11/28 01:07:21;;;;;;;7.85;5.22;;;3.80;99.90;;;;;;5080768;28;20082;-76
2022/11/28 01:09:46;;;;;;;10.02;6.18;;;3.70;99.90;;;;;;5062146;28;20028;-76
2022/11/28 01:12:12;;;;;;;13.75;5.55;;;3.70;99.90;;;;;;5078928;28;20229;-76
2022/11/28 01:14:38;;;;;;;13.35;6.00;;;3.70;99.90;;;;;;5079842;28;20033;-76
2022/11/28 01:17:03;;;;;;;10.57;5.75;;;3.60;99.90;;;;;;5079394;28;20040;-75
2022/11/28 01:19:29;;;;;;;12.57;6.43;;;3.80;99.90;;;;;;5061547;28;20021;-75
2022/11/28 01:21:55;;;;;;;9.88;5.78;;;5.40;99.90;;;;;;5079888;28;20358;-76
2022/11/28 01:24:20;;;;;;;11.48;6.60;;;3.80;99.90;;;;;;5063080;28;20032;-76
2022/11/28 01:26:46;;;;;;;10.65;5.82;;;4.80;99.90;;;;;;5079829;28;20202;-76
2022/11/28 01:29:12;;;;;;;7.80;5.97;;;4.90;99.90;;;;;;5080658;28;20040;-76
2022/11/28 01:31:38;;;;;;;11.60;5.32;;;3.70;99.90;;;;;;5062382;28;20305;-76
2022/11/28 01:34:03;;;;;;;12.70;5.35;;;3.70;99.90;;;;;;5082119;28;20019;-76
2022/11/28 01:36:29;;;;;;;11.00;4.90;;;3.70;99.90;;;;;;5080822;28;20033;-76
2022/11/28 01:38:55;;;;;;;11.52;5.90;;;5.40;99.90;;;;;;5079873;28;20024;-76
2022/11/28 01:41:23;;;;;;;18.10;5.40;;;5.40;99.90;;;;;;5062744;28;20040;-77
2022/11/28 01:44:27;;;;;;;10.13;5.90;;;3.70;99.90;;;;;;5081038;28;20186;-76
2022/11/28 01:46:52;;;;;;;11.57;5.60;;;3.70;99.90;;;;;;5062789;28;20024;-76
2022/11/28 01:49:32;;;;;;;8.88;6.13;;;3.70;99.90;;;;;;5062659;28;20029;-76
2022/11/28 01:52:06;;;;;;;12.18;6.78;;;3.60;99.90;;;;;;5081327;28;20048;-76
2022/11/28 01:54:33;;;;;;;7.38;4.63;;;3.60;99.90;;;;;;5062744;28;20074;-76
2022/11/28 01:57:12;;;;;;;8.80;4.90;;;4.20;99.90;;;;;;5080435;28;20040;-76
2022/11/28 01:59:43;;;;;;;8.20;4.53;;;3.50;99.90;;;;;;5080562;28;20106;-76
2022/11/28 02:02:17;;;;;;;7.38;4.40;;;3.50;99.90;;;;;;5080469;28;20117;-76
2022/11/28 02:04:44;;;;;;;11.77;4.93;;;3.50;99.90;;;;;;5080392;28;20016;-75
2022/11/28 02:07:10;;;;;;;9.23;5.50;;;3.50;99.90;;;;;;5080682;28;20243;-76
2022/11/28 02:09:36;;;;;;;10.82;6.63;;;3.40;99.90;;;;;;5062559;28;20020;-75
2022/11/28 02:12:31;;;;;;;8.00;5.03;;;3.40;99.90;;;;;;5080474;28;20025;-76
2022/11/28 02:15:08;;;;;;;15.13;6.22;;;4.00;99.90;;;;;;5025927;28;20038;-75
2022/11/28 02:17:49;;;;;;;6.38;4.32;;;3.30;99.90;;;;;;5062290;28;20349;-75
2022/11/28 02:21:06;;;;;;;9.07;5.15;;;3.30;99.90;;;;;;5062023;28;20016;-76
2022/11/28 02:24:03;;;;;;;13.27;5.35;;;3.30;99.90;;;;;;5028745;28;20086;-76
2022/11/28 02:27:10;;;;;;;7.28;4.53;;;3.20;99.90;;;;;;5079892;28;20048;-76
2022/11/28 02:29:57;;;;;;;11.85;4.93;;;3.10;99.90;;;;;;5079635;28;20028;-75
2022/11/28 02:32:42;;;;;;;7.22;3.95;;;3.10;99.90;;;;;;5062083;28;20074;-76
2022/11/28 02:35:36;;;;;;;12.20;6.15;;;3.20;99.90;;;;;;5078409;28;20024;-75
2022/11/28 02:38:17;;;;;;;15.40;6.55;;;3.10;99.90;;;;;;5061945;28;20055;-76
2022/11/28 02:40:53;;;;;;;11.68;5.85;;;3.10;99.90;;;;;;5079700;28;20220;-76
2022/11/28 02:43:31;;;;;;;7.32;4.80;;;3.00;99.90;;;;;;5061333;28;20028;-77
2022/11/28 02:46:26;;;;;;;11.63;5.63;;;3.00;99.90;;;;;;5070927;28;20070;-76
2022/11/28 02:49:00;;;;;;;14.55;5.25;;;3.00;99.90;;;;;;5061562;28;20048;-75
2022/11/28 02:51:36;;;;;;;11.90;5.88;;;2.80;99.90;;;;;;5078438;28;20059;-76
2022/11/28 02:54:05;;;;;;;8.90;4.82;;;2.80;99.90;;;;;;5079962;28;20021;-76
2022/11/28 02:56:31;;;;;;;8.80;5.80;;;2.80;99.90;;;;;;5079341;28;20043;-76
2022/11/28 02:58:56;;;;;;;12.18;5.65;;;3.50;99.90;;;;;;5078941;28;20017;-76
2022/11/28 03:01:28;;;;;;;15.50;7.32;;;2.80;99.90;;;;;;5061400;28;20020;-76
2022/11/28 03:04:17;;;;;;;11.75;6.13;;;2.80;99.90;;;;;;5061241;28;20019;-76
2022/11/28 03:06:45;;;;;;;12.15;6.05;;;2.70;99.90;;;;;;5078621;28;20040;-76
2022/11/28 03:09:16;;;;;;;13.32;8.23;;;2.60;99.90;;;;;;5079428;28;20013;-76
2022/11/28 03:12:29;;;;;;;11.63;6.07;;;2.60;99.90;;;;;;5077633;28;20040;-77
2022/11/28 03:14:59;;;;;;;10.10;5.07;;;2.60;99.90;;;;;;5038740;28;20135;-76
2022/11/28 03:17:52;;;;;;;9.52;5.43;;;3.00;99.90;;;;;;5079016;28;20096;-76
2022/11/28 03:20:37;;;;;;;13.48;6.25;;;2.50;99.90;;;;;;5077333;28;20090;-76
2022/11/28 03:23:23;;;;;;;9.25;5.75;;;2.40;99.90;;;;;;5079252;28;20051;-76
2022/11/28 03:26:00;;;;;;;10.35;5.30;;;2.40;99.90;;;;;;5079119;28;20018;-75
2022/11/28 03:28:26;;;;;;;7.45;5.60;;;2.40;99.90;;;;;;5079159;28;20089;-76
2022/11/28 03:31:33;;;;;;;10.88;6.35;;;2.30;99.90;;;;;;5079429;28;20020;-76
2022/11/28 03:34:01;;;;;;;15.10;7.60;;;2.30;99.90;;;;;;5016587;28;20018;-76
2022/11/28 03:36:44;;;;;;;18.42;8.02;;;2.40;99.90;;;;;;5053180;28;20048;-76
2022/11/28 03:39:22;;;;;;;11.88;6.80;;;2.30;99.90;;;;;;5077723;28;20016;-75
2022/11/28 03:42:17;;;;;;;18.95;8.77;;;2.70;99.90;;;;;;5060794;28;20095;-75
2022/11/28 03:45:04;;;;;;;13.18;6.68;;;2.40;99.90;;;;;;5062808;28;20044;-76
2022/11/28 03:47:34;;;;;;;9.95;5.85;;;2.40;99.90;;;;;;5098994;28;20085;-76
2022/11/28 03:50:05;;;;;;;8.50;6.13;;;2.80;99.90;;;;;;5080891;28;20244;-76
2022/11/28 03:52:40;;;;;;;13.70;5.97;;;2.40;99.90;;;;;;5080381;28;20059;-76
2022/11/28 03:55:22;;;;;;;13.35;7.00;;;2.80;99.90;;;;;;5080298;28;20016;-76
2022/11/28 03:57:57;;;;;;;10.57;5.47;;;2.40;99.90;;;;;;5080191;28;20275;-76
2022/11/28 04:00:24;;;;;;;10.27;6.72;;;2.40;99.90;;;;;;5080247;28;20034;-76
2022/11/28 04:03:09;;;;;;;10.57;5.38;;;2.40;99.90;;;;;;5080990;28;20250;-76
2022/11/28 04:06:01;;;;;;;11.52;6.43;;;2.50;99.90;;;;;;5102876;28;20332;-76
2022/11/28 04:08:34;;;;;;;15.02;6.68;;;2.40;99.90;;;;;;5102767;28;20027;-76
2022/11/28 04:11:07;;;;;;;9.90;5.35;;;2.40;99.90;;;;;;5102912;28;20105;-76
2022/11/28 04:13:53;;;;;;;16.25;6.90;;;2.40;99.90;;;;;;5084635;28;20032;-76
2022/11/28 04:16:37;;;;;;;13.32;5.38;;;2.40;99.90;;;;;;5084169;28;20040;-75
2022/11/28 04:19:25;;;;;;;12.55;4.95;;;2.40;99.90;;;;;;5102523;28;20028;-76
2022/11/28 04:22:03;;;;;;;10.07;4.95;;;2.30;99.90;;;;;;5102728;28;20020;-76
2022/11/28 04:24:39;;;;;;;10.07;6.00;;;2.30;99.90;;;;;;5102362;28;20023;-76
2022/11/28 04:27:09;;;;;;;11.90;5.13;;;2.30;99.90;;;;;;5084470;28;20386;-76
2022/11/28 04:29:41;;;;;;;7.45;4.60;;;2.30;99.90;;;;;;5101970;28;20042;-76
2022/11/28 04:32:08;;;;;;;15.98;5.25;;;3.10;99.90;;;;;;5084219;28;20204;-76
2022/11/28 04:34:35;;;;;;;12.07;5.57;;;2.30;99.90;;;;;;5102146;28;20084;-75
2022/11/28 04:37:01;;;;;;;9.48;5.53;;;3.60;99.90;;;;;;5083687;28;20323;-77
2022/11/28 04:39:29;;;;;;;12.07;6.55;;;2.90;99.90;;;;;;5083671;28;20066;-75
2022/11/28 04:42:04;;;;;;;10.85;5.68;;;3.10;99.90;;;;;;5083771;28;20036;-75
2022/11/28 04:44:48;;;;;;;11.00;6.15;;;2.60;99.90;;;;;;5082817;28;20099;-76
2022/11/28 04:47:15;;;;;;;12.20;7.32;;;2.50;99.90;;;;;;5063591;28;20239;-75
2022/11/28 04:49:40;;;;;;;8.55;5.13;;;3.90;99.90;;;;;;5063945;28;20081;-76
2022/11/28 04:52:13;;;;;;;7.20;4.70;;;2.60;99.90;;;;;;5081763;28;20079;-76
2022/11/28 04:55:08;;;;;;;12.77;6.85;;;2.50;99.90;;;;;;5081765;28;20020;-77
2022/11/28 04:57:51;;;;;;;11.75;5.95;;;2.50;99.90;;;;;;5064089;28;20278;-75
2022/11/28 05:00:19;;;;;;;7.70;5.45;;;2.40;99.90;;;;;;5063873;28;20218;-75
2022/11/28 05:02:49;;;;;;;8.40;5.13;;;2.40;99.90;;;;;;5063699;28;20016;-76
2022/11/28 05:05:24;;;;;;;10.35;4.90;;;2.40;99.90;;;;;;5080808;28;20039;-76
2022/11/28 05:07:52;;;;;;;9.88;5.38;;;2.30;99.90;;;;;;5081040;28;20016;-76
2022/11/28 05:10:18;;;;;;;9.40;4.90;;;2.40;99.90;;;;;;5080985;28;20087;-75
2022/11/28 05:12:44;;;;;;;8.32;5.10;;;2.40;99.90;;;;;;5063048;28;20336;-76
2022/11/28 05:15:10;;;;;;;10.90;5.80;;;2.40;99.90;;;;;;5080017;28;20204;-76
2022/11/28 05:17:37;;;;;;;8.13;4.43;;;2.40;99.90;;;;;;5080978;28;20033;-76
2022/11/28 05:20:04;;;;;;;8.73;4.85;;;4.10;99.90;;;;;;5062896;28;20206;-76
2022/11/28 05:22:29;;;;;;;7.35;4.82;;;2.40;99.90;;;;;;5062801;28;20036;-75
2022/11/28 05:24:55;;;;;;;7.03;4.95;;;4.20;99.90;;;;;;5081162;28;20309;-76
2022/11/28 05:27:21;;;;;;;6.55;3.85;;;2.50;99.90;;;;;;5081012;28;20051;-76
2022/11/28 05:29:46;;;;;;;7.80;4.95;;;2.70;99.90;;;;;;5080666;28;20024;-76
2022/11/28 05:32:13;;;;;;;9.82;5.15;;;2.50;99.90;;;;;;5081026;28;20031;-76
2022/11/28 05:34:38;;;;;;;7.75;5.10;;;4.00;99.90;;;;;;5082161;28;20066;-76
2022/11/28 05:37:04;;;;;;;12.40;5.90;;;3.20;99.90;;;;;;5082161;28;20040;-76
2022/11/28 05:39:30;;;;;;;9.05;5.13;;;3.10;99.90;;;;;;5080675;28;20024;-76
2022/11/28 05:41:56;;;;;;;17.73;5.03;;;2.70;99.90;;;;;;5081220;28;20020;-76
2022/11/28 05:44:22;;;;;;;6.05;4.05;;;2.70;99.90;;;;;;5063007;28;20027;-76
2022/11/28 05:46:48;;;;;;;5.43;4.72;;;3.60;99.90;;;;;;5080719;28;20056;-75
2022/11/28 05:49:13;;;;;;;9.32;5.72;;;3.30;99.90;;;;;;5062653;28;20024;-75
2022/11/28 05:51:39;;;;;;;8.68;5.30;;;4.00;99.90;;;;;;5080379;28;20097;-76
2022/11/28 05:54:05;;;;;;;10.82;4.68;;;3.10;99.90;;;;;;5062300;28;20024;-76
2022/11/28 05:56:31;;;;;;;6.70;4.53;;;2.80;99.90;;;;;;5079743;28;20048;-76
2022/11/28 05:58:56;;;;;;;9.65;4.53;;;2.80;99.90;;;;;;5062009;28;20281;-76
2022/11/28 06:01:27;;;;;;;8.48;5.72;;;3.20;99.90;;;;;;5061854;28;20225;-76
2022/11/28 06:03:59;;;;;;;8.90;4.72;;;3.00;99.90;;;;;;5062595;28;20124;-76
2022/11/28 06:06:26;;;;;;;8.30;5.45;;;4.10;99.90;;;;;;5062342;28;20037;-75
2022/11/28 06:08:52;;;;;;;7.50;3.63;;;3.90;99.90;;;;;;5081242;28;20042;-76
2022/11/28 06:11:19;;;;;;;11.02;5.32;;;3.10;99.90;;;;;;5061396;28;20103;-75
2022/11/28 06:13:46;;;;;;;9.68;4.75;;;3.20;99.90;;;;;;5079710;28;20343;-76
2022/11/28 06:16:15;;;;;;;7.40;5.40;;;3.20;99.90;;;;;;5079966;28;20099;-75
2022/11/28 06:18:41;;;;;;;10.48;6.10;;;3.20;99.90;;;;;;5079975;28;20012;-76
2022/11/28 06:21:09;;;;;;;8.25;5.32;;;3.80;99.90;;;;;;5062132;28;20024;-75
2022/11/28 06:23:35;;;;;;;14.57;8.13;;;;;;;;;;5062693;28;20022;-76
2022/11/28 06:26:05;;;;;;;13.00;6.53;;;3.30;99.90;;;;;;5079351;28;20032;-76
2022/11/28 06:28:31;;;;;;;14.60;7.80;;;3.30;99.90;;;;;;5062106;28;20027;-76
2022/11/28 06:30:57;;;;;;;15.43;7.22;;;3.30;99.90;;;;;;5080119;28;20270;-78
2022/11/28 06:33:23;;;;;;;8.68;4.55;;;3.30;99.90;;;;;;5061706;28;20043;-76
2022/11/28 06:35:48;;;;;;;7.30;6.10;;;3.70;99.90;;;;;;5061730;28;20339;-79
2022/11/28 06:38:14;;;;;;;11.55;5.60;;;3.10;99.90;;;;;;5061996;28;20028;-76
2022/11/28 06:40:39;;;;;;;8.93;4.95;;;3.10;99.90;;;;;;5062014;28;20099;-77
2022/11/28 06:43:05;;;;;;;6.97;4.88;;;3.00;99.90;;;;;;5061803;28;20021;-76
2022/11/28 06:45:33;;;;;;;7.93;3.83;;;3.10;99.90;;;;;;5088155;28;20532;-76
2022/11/28 06:48:00;;;;;;;9.02;4.60;;;3.50;99.90;;;;;;5099795;28;20042;-78
2022/11/28 06:50:26;;;;;;;5.90;4.15;;;4.40;99.90;;;;;;5081092;28;20070;-76
2022/11/28 06:52:53;;;;;;;7.53;4.15;;;3.10;99.90;;;;;;5081196;28;20048;-76
2022/11/28 06:55:19;;;;;;;5.55;4.15;;;3.40;99.90;;;;;;5081328;28;20038;-78
2022/11/28 06:57:45;;;;;;;7.85;4.82;;;3.60;99.90;;;;;;5081290;28;20035;-79
2022/11/28 07:00:11;;;;;;;7.35;4.45;;;3.10;99.90;;;;;;5081377;28;20027;-76
2022/11/28 07:02:37;;;;;;;10.55;4.95;;;3.10;99.90;;;;;;5080484;28;20054;-77
2022/11/28 07:05:03;;;;;;;6.88;4.47;;;3.20;99.90;;;;;;5080637;28;20055;-76
2022/11/28 07:07:28;;;;;;;9.48;4.75;;;3.10;99.90;;;;;;5080304;28;20032;-76
2022/11/28 07:09:54;;;;;;;6.85;3.63;;;3.20;99.90;;;;;;5076937;28;20024;-77
2022/11/28 07:12:20;;;;;;;7.90;3.65;;;3.20;99.90;;;;;;5098545;28;20247;-76
2022/11/28 07:14:45;;;;;;;6.20;4.00;;;3.30;99.90;;;;;;5098760;28;20027;-79
2022/11/28 07:17:11;;;;;;;5.53;3.53;;;3.80;99.90;;;;;;5080343;28;20027;-76
2022/11/28 07:19:37;;;;;;;7.55;4.30;;;3.20;99.90;;;;;;5080813;28;20058;-78
2022/11/28 07:22:02;;;;;;;6.65;4.10;;;3.30;99.90;;;;;;5080643;28;20149;-76
2022/11/28 07:24:29;;;;;;;6.03;3.83;;;3.40;99.90;;;;;;5099091;28;20135;-76
2022/11/28 07:26:55;;;;;;;4.95;3.90;;;3.40;99.90;;;;;;5081056;28;20051;-78
2022/11/28 07:29:23;;;;;;;8.23;3.95;;;4.90;99.90;;;;;;5080768;28;20118;-76
2022/11/28 07:31:49;;;;;;;6.93;3.58;;;4.70;99.90;;;;;;5080975;28;20208;-76
2022/11/28 07:34:15;;;;;;;4.70;3.92;;;3.50;99.90;;;;;;5080818;28;20012;-76
2022/11/28 07:36:41;;;;;;;5.35;3.40;;;4.00;99.90;;;;;;5080035;28;20051;-76
2022/11/28 07:39:11;;;;;;;6.75;3.17;;;3.80;99.90;;;;;;5080577;28;20369;-76
2022/11/28 07:41:36;;;;;;;6.88;3.42;;;3.70;99.90;;;;;;5080784;28;20031;-76
2022/11/28 07:44:03;;;;;;;6.55;3.70;;;3.80;99.90;;;;;;5081638;28;20028;-75
2022/11/28 07:46:30;;;;;;;5.97;3.67;;;3.70;99.90;;;;;;5063754;28;20029;-76
2022/11/28 07:48:55;;;;;;;6.15;3.90;;;3.70;99.90;;;;;;5078295;28;20027;-76
2022/11/28 07:51:27;;;;;;;7.72;4.68;;;4.70;99.90;;;;;;5058927;28;20325;-77
2022/11/28 07:53:53;;;;;;;8.32;3.20;;;3.80;99.90;;;;;;5060736;28;20097;-75
2022/11/28 07:56:22;;;;;;;7.70;3.88;;;3.90;99.90;;;;;;5059389;28;20263;-75
2022/11/28 07:58:48;;;;;;;6.50;3.60;;;4.00;99.90;;;;;;5077119;28;20059;-76
2022/11/28 08:01:21;;;;;;;6.15;3.55;;;4.00;99.90;;;;;;5080151;28;20021;-77
2022/11/28 08:03:47;;;;;;;3.95;3.08;;;4.10;99.90;;;;;;5093179;28;20052;-76
2022/11/28 08:06:15;;;;;;;6.70;4.50;;;4.20;99.90;;;;;;5078395;28;20021;-76
2022/11/28 08:08:41;;;;;;;5.72;3.58;;;4.30;99.90;;;;;;5097242;28;20026;-77
2022/11/28 08:11:08;;;;;;;9.98;5.07;;;5.70;99.90;;;;;;5098198;28;20103;-82
2022/11/28 08:13:37;;;;;;;8.02;4.18;;;4.40;99.90;;;;;;5068657;28;20041;-76
2022/11/28 08:16:14;;;;;;;6.80;3.47;;;4.40;99.90;;;;;;5081037;28;20068;-77
2022/11/28 08:18:40;;;;;;;4.90;3.08;;;;;;;;;;5070972;28;20496;-76
2022/11/28 08:21:13;;;;;;;6.90;3.40;;;4.50;99.90;;;;;;5069797;28;20041;-76
2022/11/28 08:23:39;;;;;;;6.97;4.35;;;4.50;99.90;;;;;;5070114;28;20250;-78
2022/11/28 08:26:07;;;;;;;5.47;3.25;;;4.70;99.90;;;;;;5093563;28;20031;-75
2022/11/28 08:28:33;;;;;;;3.22;2.90;;;5.30;99.90;;;;;;5098516;28;20024;-76
2022/11/28 08:31:06;;;;;;;3.67;2.75;;;5.60;99.90;;;;;;5078900;28;20104;-76
2022/11/28 08:33:32;;;;;;;3.45;2.75;;;5.70;99.90;;;;;;5099063;28;20083;-76
2022/11/28 08:35:58;;;;;;;4.55;2.60;;;5.00;99.90;;;;;;5096428;28;20134;-77
2022/11/28 08:38:23;;;;;;;5.18;2.97;;;5.70;99.90;;;;;;5098413;28;20032;-77
2022/11/28 08:40:49;;;;;;;4.82;2.90;;;5.20;99.90;;;;;;5080106;28;20268;-76
2022/11/28 08:43:14;;;;;;;4.53;2.95;;;5.20;99.90;;;;;;5073979;28;20032;-76
2022/11/28 08:45:40;;;;;;;6.18;3.83;;;5.30;99.90;;;;;;5086102;28;20052;-76
2022/11/28 08:48:06;;;;;;;4.80;3.45;;;5.40;99.90;;;;;;5087546;28;20109;-77
2022/11/28 08:50:32;;;;;;;4.65;2.63;;;5.40;99.90;;;;;;5079816;28;20030;-76
2022/11/28 08:52:57;;;;;;;3.90;3.10;;;5.50;99.90;;;;;;5101639;28;20032;-76
2022/11/28 08:55:23;;;;;;;3.95;2.80;;;5.50;99.90;;;;;;5101466;28;20046;-77
2022/11/28 08:57:49;;;;;;;8.00;3.92;;;5.60;99.90;;;;;;5101927;28;20094;-76
2022/11/28 09:00:15;;;;;;;7.07;3.08;;;5.60;99.90;;;;;;5101489;28;20057;-77
2022/11/28 09:02:41;;;;;;;4.88;3.55;;;5.70;99.90;;;;;;5077101;28;20216;-76
2022/11/28 09:05:07;;;;;;;11.15;4.10;;;5.70;99.90;;;;;;5093047;28;20016;-76
2022/11/28 09:07:33;;;;;;;5.25;3.15;;;5.70;99.90;;;;;;5101799;28;20030;-76
2022/11/28 09:09:58;;;;;;;12.07;5.55;;;5.80;99.90;;;;;;5082862;28;20118;-76
2022/11/28 09:12:24;;;;;;;8.90;4.40;;;5.80;99.90;;;;;;5101426;28;20085;-75
2022/11/28 09:14:50;;;;;;;8.68;5.65;;;6.10;99.90;;;;;;5102071;28;20216;-77
2022/11/28 09:17:16;;;;;;;7.53;5.32;;;6.10;99.90;;;;;;5082991;28;20048;-77
2022/11/28 09:19:41;;;;;;;6.95;4.57;;;6.10;99.90;;;;;;5100962;28;20212;-76
2022/11/28 09:22:07;;;;;;;8.20;5.72;;;6.10;99.90;;;;;;5100433;28;20089;-76
2022/11/28 09:24:33;;;;;;;7.78;4.15;;;6.10;99.90;;;;;;5100490;28;20313;-77
2022/11/28 09:26:59;;;;;;;6.97;4.45;;;6.10;99.90;;;;;;5082854;28;20028;-75
2022/11/28 09:29:25;;;;;;;9.35;5.30;;;6.10;99.90;;;;;;5100633;28;20188;-76
2022/11/28 09:31:51;;;;;;;10.07;4.88;;;6.10;99.90;;;;;;5071474;28;20228;-76
2022/11/28 09:34:17;;;;;;;7.13;4.95;;;6.10;99.90;;;;;;5079152;28;20012;-76
2022/11/28 09:36:42;;;;;;;9.23;4.43;;;6.10;99.90;;;;;;5101017;28;20047;-78
2022/11/28 09:39:08;;;;;;;8.45;3.47;;;6.20;99.90;;;;;;5091019;28;20020;-76
2022/11/28 09:41:59;;;;;;;26.10;11.43;;;6.30;99.90;;;;;;5076659;28;20290;-75
2022/11/28 09:44:31;;;;;;;17.55;9.88;;;6.50;99.90;;;;;;5073098;28;20057;-76
2022/11/28 09:47:03;;;;;;;14.30;5.85;;;6.70;99.90;;;;;;5091554;28;20240;-76
2022/11/28 09:49:49;;;;;;;11.90;5.88;;;6.70;99.90;;;;;;5072113;28;20025;-76
2022/11/28 09:52:53;;;;;;;11.82;6.53;;;6.80;99.90;;;;;;5091086;28;20052;-76
2022/11/28 09:55:38;;;;;;;11.55;6.90;;;6.80;99.90;;;;;;5066436;28;20035;-75
2022/11/28 09:58:29;;;;;;;11.02;7.55;;;6.90;99.90;;;;;;5062096;28;20108;-76
2022/11/28 10:01:10;;;;;;;26.55;12.05;;;7.10;99.90;;;;;;5062479;28;20043;-76
2022/11/28 10:03:48;;;;;;;42.33;18.40;;;7.30;99.90;;;;;;5062256;28;20047;-76
2022/11/28 10:06:32;;;;;;;30.15;12.75;;;7.20;99.90;;;;;;5062333;28;20028;-77
2022/11/28 10:09:03;;;;;;;16.52;6.80;;;7.30;99.90;;;;;;5079763;28;20024;-75
2022/11/28 10:11:48;;;;;;;10.05;5.88;;;7.40;99.90;;;;;;5064469;28;20032;-75
2022/11/28 10:14:32;;;;;;;11.23;6.30;;;7.50;99.90;;;;;;5061677;28;20097;-76
2022/11/28 10:17:27;;;;;;;11.07;5.68;;;7.60;99.90;;;;;;5060727;28;20052;-76
2022/11/28 10:19:59;;;;;;;9.27;5.75;;;7.60;99.90;;;;;;5078634;28;20076;-76
2022/11/28 10:22:44;;;;;;;10.18;6.15;;;7.80;99.90;;;;;;5078468;28;20224;-78
2022/11/28 10:25:42;;;;;;;9.25;4.22;;;7.90;99.90;;;;;;5060254;28;20220;-80
2022/11/28 10:28:35;;;;;;;5.78;4.18;;;8.00;99.90;;;;;;5057900;28;20198;-77
2022/11/28 10:31:05;;;;;;;28.23;5.55;;;7.90;99.90;;;;;;5076992;28;20048;-76
2022/11/28 10:33:40;;;;;;;8.98;4.35;;;8.10;99.90;;;;;;5078045;28;20105;-77
2022/11/28 10:36:19;;;;;;;8.32;5.10;;;8.30;99.90;;;;;;5079525;28;20028;-76
2022/11/28 10:38:45;;;;;;;12.05;5.45;;;8.50;99.90;;;;;;5062060;28;20020;-76
2022/11/28 10:41:19;;;;;;;7.80;4.32;;;8.50;99.90;;;;;;5078628;28;20051;-76
2022/11/28 10:43:54;;;;;;;17.08;7.93;;;8.50;99.90;;;;;;5077987;28;20074;-77
2022/11/28 10:46:57;;;;;;;11.82;5.80;;;8.70;99.90;;;;;;5094727;28;20028;-77
2022/11/28 10:49:40;;;;;;;11.98;5.47;;;8.80;99.90;;;;;;5081245;28;20020;-76
2022/11/28 10:52:24;;;;;;;10.05;5.63;;;8.80;99.90;;;;;;5099420;28;20544;-77
2022/11/28 10:55:22;;;;;;;10.27;5.75;;;8.90;99.90;;;;;;5071312;28;20104;-78
2022/11/28 10:57:55;;;;;;;7.20;4.88;;;8.90;99.90;;;;;;5071820;28;20052;-75
2022/11/28 11:00:21;;;;;;;8.95;5.07;;;9.00;99.90;;;;;;5080679;28;20020;-78
2022/11/28 11:02:47;;;;;;;19.05;5.57;;;8.70;99.90;;;;;;5098815;28;20189;-76
2022/11/28 11:05:19;;;;;;;9.63;4.95;;;8.80;99.90;;;;;;5098724;28;20023;-76
2022/11/28 11:07:51;;;;;;;9.32;5.63;;;8.80;99.90;;;;;;5098968;28;20024;-76
2022/11/28 11:10:31;;;;;;;8.82;5.45;;;8.80;99.90;;;;;;5080405;28;20023;-77
2022/11/28 11:12:58;;;;;;;8.05;5.47;;;8.80;99.90;;;;;;5098363;28;20019;-77
2022/11/28 11:15:28;;;;;;;11.18;5.13;;;8.70;99.90;;;;;;5096878;28;20232;-76
2022/11/28 11:17:54;;;;;;;7.97;3.92;;;8.70;99.90;;;;;;5098440;28;20096;-76
2022/11/28 11:20:29;;;;;;;7.78;5.40;;;8.90;99.90;;;;;;5098522;28;20016;-77
2022/11/28 11:22:56;;;;;;;8.95;4.68;;;9.00;99.90;;;;;;5098696;28;20024;-76
2022/11/28 11:25:24;;;;;;;7.30;4.63;;;9.00;99.90;;;;;;5079812;28;20067;-76
2022/11/28 11:27:54;;;;;;;6.47;4.10;;;9.10;99.90;;;;;;5097708;28;20051;-76
2022/11/28 11:30:32;;;;;;;5.28;4.57;;;8.80;99.90;;;;;;5097901;28;20204;-77
2022/11/28 11:33:00;;;;;;;8.80;5.10;;;8.90;99.90;;;;;;5098490;28;20042;-77
2022/11/28 11:35:28;;;;;;;6.82;4.22;;;9.00;99.90;;;;;;5098089;28;20156;-76
2022/11/28 11:38:25;;;;;;;8.30;4.27;;;9.10;99.90;;;;;;5079453;28;20161;-77
2022/11/28 11:40:51;;;;;;;5.82;3.85;;;9.00;99.90;;;;;;5097858;28;20019;-77
2022/11/28 11:43:28;;;;;;;9.75;5.65;;;8.90;99.90;;;;;;5079959;28;20332;-76
2022/11/28 11:46:14;;;;;;;13.45;5.90;;;8.80;99.90;;;;;;5084802;28;20047;-77
2022/11/28 11:48:42;;;;;;;10.13;6.47;;;9.00;99.90;;;;;;5059532;28;20313;-77
2022/11/28 11:51:30;;;;;;;8.65;5.10;;;9.10;99.90;;;;;;5077926;28;20057;-75
2022/11/28 11:54:00;;;;;;;7.93;5.15;;;9.10;99.90;;;;;;5077005;28;20037;-77
2022/11/28 11:56:30;;;;;;;8.52;5.68;;;9.00;99.90;;;;;;5076622;28;20209;-77
2022/11/28 11:58:57;;;;;;;6.95;4.35;;;9.10;99.90;;;;;;5072643;28;20063;-76
2022/11/28 12:01:24;;;;;;;11.02;5.15;;;9.10;99.90;;;;;;5077473;28;20036;-78
2022/11/28 12:03:59;;;;;;;8.45;5.45;;;9.10;99.90;;;;;;5058860;28;20020;-76
2022/11/28 12:06:31;;;;;;;10.48;4.82;;;9.10;99.90;;;;;;5059242;28;20028;-77
2022/11/28 12:09:07;;;;;;;12.05;5.07;;;9.20;99.90;;;;;;5060869;28;20021;-76
2022/11/28 12:11:37;;;;;;;11.13;4.40;;;9.20;99.90;;;;;;5077699;28;20016;-76
2022/11/28 12:14:49;;;;;;;10.32;6.00;;;9.50;99.90;;;;;;5060283;28;20212;-76
2022/11/28 12:17:36;;;;;;;7.18;5.03;;;9.60;99.90;;;;;;5075435;28;20348;-77
2022/11/28 12:20:23;;;;;;;11.75;6.05;;;9.80;99.90;;;;;;5077875;28;20028;-76
2022/11/28 12:23:06;;;;;;;10.07;5.07;;;10.00;99.90;;;;;;5078100;28;20032;-76
2022/11/28 12:25:32;;;;;;;10.98;5.93;;;10.10;99.90;;;;;;5063769;28;20031;-76
2022/11/28 12:27:57;;;;;;;9.10;5.85;;;10.00;99.90;;;;;;5064256;28;20016;-76
2022/11/28 12:30:47;;;;;;;14.95;6.55;;;10.00;99.90;;;;;;5082382;28;20067;-76
2022/11/28 12:33:31;;;;;;;7.88;4.88;;;10.00;99.90;;;;;;5081315;28;20027;-75
2022/11/28 12:36:22;;;;;;;10.88;4.88;;;10.00;99.90;;;;;;5081194;28;20060;-76
2022/11/28 12:38:59;;;;;;;9.50;5.50;;;9.80;99.90;;;;;;5025694;28;20327;-75
2022/11/28 12:41:34;;;;;;;8.07;5.80;;;9.60;99.90;;;;;;5081107;28;20336;-76
2022/11/28 12:44:33;;;;;;;7.55;5.07;;;9.50;99.90;;;;;;5063544;28;20033;-78
2022/11/28 12:47:16;;;;;;;9.90;4.93;;;9.40;99.90;;;;;;5081124;28;20377;-78
2022/11/28 12:50:09;;;;;;;9.00;5.57;;;9.30;99.90;;;;;;5062944;28;20028;-77
2022/11/28 12:52:53;;;;;;;8.35;5.05;;;9.10;99.90;;;;;;5081162;28;20102;-77
2022/11/28 12:55:34;;;;;;;11.23;5.45;;;8.90;99.90;;;;;;5063004;28;20328;-79
2022/11/28 12:58:20;;;;;;;12.27;4.25;;;8.60;99.90;;;;;;5080868;28;20275;-75
2022/11/28 13:01:01;;;;;;;7.82;4.72;;;8.60;99.90;;;;;;5081574;28;20029;-76
2022/11/28 13:03:40;;;;;;;11.68;5.45;;;8.50;99.90;;;;;;5080326;28;20043;-76
2022/11/28 13:06:08;;;;;;;8.52;4.35;;;8.50;99.90;;;;;;5080405;28;20032;-77
2022/11/28 13:08:53;;;;;;;8.50;5.63;;;8.60;99.90;;;;;;5062831;28;20048;-76
2022/11/28 13:11:49;;;;;;;7.28;5.15;;;8.70;99.90;;;;;;5080519;28;20021;-76
2022/11/28 13:14:26;;;;;;;22.10;7.00;;;9.00;99.90;;;;;;5062778;28;20318;-75
2022/11/28 13:16:55;;;;;;;10.02;5.03;;;9.20;99.90;;;;;;5080581;28;20035;-77
2022/11/28 13:19:51;;;;;;;10.43;5.70;;;9.40;99.90;;;;;;5078689;28;20134;-76
2022/11/28 13:22:22;;;;;;;12.13;4.80;;;9.50;99.90;;;;;;5091463;28;20035;-75